sensor_id;sensor_type;location;lat;lon;timestamp;temperature;humidity
15765;DHT22;7983;50.744;7.086;2022-09-21T00:01:07;11.80;99.90
15765;DHT22;7983;50.744;7.086;2022-09-21T00:03:34;11.80;99.90
15765;DHT22;7983;50.744;7.086;2022-09-21T00:06:11;11.70;99.90
15765;DHT22;7983;50.744;7.086;2022-09-21T00:08:40;11.70;99.90
15765;DHT22;7983;50.744;7.086;2022-09-21T00:11:05;11.70;99.90
15765;DHT22;7983;50.744;7.086;2022-09-21T00:13:32;11.60;99.90
15765;DHT22;7983;50.744;7.086;2022-09-21T00:16:05;11.60;99.90
15765;DHT22;7983;50.744;7.086;2022-09-21T00:18:31;11.60;99.90
15765;DHT22;7983;50.744;7.086;2022-09-21T00:20:58;11.50;99.90
15765;DHT22;7983;50.744;7.086;2022-09-21T00:23:26;11.50;99.90
15765;DHT22;7983;50.744;7.086;2022-09-21T00:25:55;11.50;99.90
15765;DHT22;7983;50.744;7.086;2022-09-21T00:28:29;11.50;99.90
15765;DHT22;7983;50.744;7.086;2022-09-21T00:31:00;11.50;99.90
15765;DHT22;7983;50.744;7.086;2022-09-21T00:33:26;11.50;99.90
15765;DHT22;7983;50.744;7.086;2022-09-21T00:35:54;11.40;99.90
15765;DHT22;7983;50.744;7.086;2022-09-21T00:38:19;11.40;99.90
15765;DHT22;7983;50.744;7.086;2022-09-21T00:40:45;11.40;99.90
15765;DHT22;7983;50.744;7.086;2022-09-21T00:43:17;11.40;99.90
15765;DHT22;7983;50.744;7.086;2022-09-21T00:45:47;11.40;99.90
15765;DHT22;7983;50.744;7.086;2022-09-21T00:48:14;11.40;99.90
15765;DHT22;7983;50.744;7.086;2022-09-21T00:50:45;11.30;99.90
15765;DHT22;7983;50.744;7.086;2022-09-21T00:53:13;11.30;99.90
15765;DHT22;7983;50.744;7.086;2022-09-21T00:55:49;11.20;99.90
15765;DHT22;7983;50.744;7.086;2022-09-21T00:58:20;11.20;99.90
15765;DHT22;7983;50.744;7.086;2022-09-21T01:00:48;11.20;99.90
15765;DHT22;7983;50.744;7.086;2022-09-21T01:03:14;11.20;99.90
15765;DHT22;7983;50.744;7.086;2022-09-21T01:05:40;11.20;99.90
15765;DHT22;7983;50.744;7.086;2022-09-21T01:08:06;11.10;99.90
15765;DHT22;7983;50.744;7.086;2022-09-21T01:25:02;11.00;99.90
15765;DHT22;7983;50.744;7.086;2022-09-21T01:27:34;10.90;99.90
15765;DHT22;7983;50.744;7.086;2022-09-21T01:30:04;10.90;99.90
15765;DHT22;7983;50.744;7.086;2022-09-21T01:32:41;10.90;99.90
15765;DHT22;7983;50.744;7.086;2022-09-21T01:35:19;10.80;99.90
15765;DHT22;7983;50.744;7.086;2022-09-21T01:40:32;10.70;99.90
15765;DHT22;7983;50.744;7.086;2022-09-21T01:43:03;10.70;99.90
15765;DHT22;7983;50.744;7.086;2022-09-21T01:45:32;10.70;99.90
15765;DHT22;7983;50.744;7.086;2022-09-21T01:47:59;10.60;99.90
15765;DHT22;7983;50.744;7.086;2022-09-21T01:50:34;10.60;99.90
15765;DHT22;7983;50.744;7.086;2022-09-21T01:53:08;10.50;99.90
15765;DHT22;7983;50.744;7.086;2022-09-21T01:55:49;10.50;99.90
15765;DHT22;7983;50.744;7.086;2022-09-21T02:00:49;10.40;99.90
15765;DHT22;7983;50.744;7.086;2022-09-21T02:03:26;10.30;99.90
15765;DHT22;7983;50.744;7.086;2022-09-21T02:05:56;10.30;99.90
15765;DHT22;7983;50.744;7.086;2022-09-21T02:08:23;10.30;99.90
15765;DHT22;7983;50.744;7.086;2022-09-21T02:10:53;10.30;99.90
15765;DHT22;7983;50.744;7.086;2022-09-21T02:13:22;10.30;99.90
15765;DHT22;7983;50.744;7.086;2022-09-21T02:21:20;10.30;99.90
15765;DHT22;7983;50.744;7.086;2022-09-21T02:24:08;10.30;99.90
15765;DHT22;7983;50.744;7.086;2022-09-21T02:26:47;10.30;99.90
15765;DHT22;7983;50.744;7.086;2022-09-21T02:29:40;10.30;99.90
15765;DHT22;7983;50.744;7.086;2022-09-21T02:40:36;10.30;99.90
15765;DHT22;7983;50.744;7.086;2022-09-21T02:43:15;10.30;99.90
15765;DHT22;7983;50.744;7.086;2022-09-21T02:45:50;10.20;99.90
15765;DHT22;7983;50.744;7.086;2022-09-21T02:48:27;10.20;99.90
15765;DHT22;7983;50.744;7.086;2022-09-21T02:51:03;10.20;99.90
15765;DHT22;7983;50.744;7.086;2022-09-21T02:53:33;10.20;99.90
15765;DHT22;7983;50.744;7.086;2022-09-21T02:56:02;10.30;99.90
15765;DHT22;7983;50.744;7.086;2022-09-21T02:58:37;10.20;99.90
15765;DHT22;7983;50.744;7.086;2022-09-21T03:01:08;10.20;99.90
15765;DHT22;7983;50.744;7.086;2022-09-21T03:03:35;10.20;99.90
15765;DHT22;7983;50.744;7.086;2022-09-21T03:06:01;10.20;99.90
15765;DHT22;7983;50.744;7.086;2022-09-21T03:08:29;10.20;99.90
15765;DHT22;7983;50.744;7.086;2022-09-21T03:10:55;10.20;99.90
15765;DHT22;7983;50.744;7.086;2022-09-21T03:13:22;10.20;99.90
15765;DHT22;7983;50.744;7.086;2022-09-21T03:16:01;10.10;99.90
15765;DHT22;7983;50.744;7.086;2022-09-21T03:18:29;10.10;99.90
15765;DHT22;7983;50.744;7.086;2022-09-21T03:20:58;10.10;99.90
15765;DHT22;7983;50.744;7.086;2022-09-21T03:23:24;10.00;99.90
15765;DHT22;7983;50.744;7.086;2022-09-21T03:25:53;10.00;99.90
15765;DHT22;7983;50.744;7.086;2022-09-21T03:28:20;10.00;99.90
15765;DHT22;7983;50.744;7.086;2022-09-21T03:30:50;10.00;99.90
15765;DHT22;7983;50.744;7.086;2022-09-21T03:33:17;9.90;99.90
15765;DHT22;7983;50.744;7.086;2022-09-21T03:35:43;9.90;99.90
15765;DHT22;7983;50.744;7.086;2022-09-21T03:38:12;9.90;99.90
15765;DHT22;7983;50.744;7.086;2022-09-21T03:40:37;9.90;99.90
15765;DHT22;7983;50.744;7.086;2022-09-21T03:43:05;9.90;99.90
15765;DHT22;7983;50.744;7.086;2022-09-21T03:45:31;9.90;99.90
15765;DHT22;7983;50.744;7.086;2022-09-21T03:47:57;9.80;99.90
15765;DHT22;7983;50.744;7.086;2022-09-21T03:50:27;9.80;99.90
15765;DHT22;7983;50.744;7.086;2022-09-21T03:52:58;9.80;99.90
15765;DHT22;7983;50.744;7.086;2022-09-21T03:55:26;9.80;99.90
15765;DHT22;7983;50.744;7.086;2022-09-21T03:57:52;9.80;99.90
15765;DHT22;7983;50.744;7.086;2022-09-21T04:00:20;9.80;99.90
15765;DHT22;7983;50.744;7.086;2022-09-21T04:02:46;9.70;99.90
15765;DHT22;7983;50.744;7.086;2022-09-21T04:05:14;9.70;99.90
15765;DHT22;7983;50.744;7.086;2022-09-21T04:07:41;9.80;99.90
15765;DHT22;7983;50.744;7.086;2022-09-21T04:10:12;9.70;99.90
15765;DHT22;7983;50.744;7.086;2022-09-21T04:12:41;9.70;99.90
15765;DHT22;7983;50.744;7.086;2022-09-21T04:15:12;9.70;99.90
15765;DHT22;7983;50.744;7.086;2022-09-21T04:17:43;9.70;99.90
15765;DHT22;7983;50.744;7.086;2022-09-21T04:20:08;9.70;99.90
15765;DHT22;7983;50.744;7.086;2022-09-21T04:22:35;9.70;99.90
15765;DHT22;7983;50.744;7.086;2022-09-21T04:25:02;9.70;99.90
15765;DHT22;7983;50.744;7.086;2022-09-21T04:27:33;9.80;99.90
15765;DHT22;7983;50.744;7.086;2022-09-21T04:29:59;9.80;99.90
15765;DHT22;7983;50.744;7.086;2022-09-21T04:32:27;9.80;99.90
15765;DHT22;7983;50.744;7.086;2022-09-21T04:34:52;9.90;99.90
15765;DHT22;7983;50.744;7.086;2022-09-21T04:37:18;9.90;99.90
15765;DHT22;7983;50.744;7.086;2022-09-21T04:39:44;10.00;99.90
15765;DHT22;7983;50.744;7.086;2022-09-21T04:42:09;10.00;99.90
15765;DHT22;7983;50.744;7.086;2022-09-21T04:44:35;10.00;99.90
15765;DHT22;7983;50.744;7.086;2022-09-21T04:47:03;10.00;99.90
15765;DHT22;7983;50.744;7.086;2022-09-21T04:49:29;10.10;99.90
15765;DHT22;7983;50.744;7.086;2022-09-21T04:51:55;10.10;99.90
15765;DHT22;7983;50.744;7.086;2022-09-21T04:54:23;10.10;99.90
15765;DHT22;7983;50.744;7.086;2022-09-21T04:56:49;10.10;99.90
15765;DHT22;7983;50.744;7.086;2022-09-21T04:59:17;10.20;99.90
15765;DHT22;7983;50.744;7.086;2022-09-21T05:01:42;10.20;99.90
15765;DHT22;7983;50.744;7.086;2022-09-21T05:04:08;10.20;99.90
15765;DHT22;7983;50.744;7.086;2022-09-21T05:06:36;10.20;99.90
15765;DHT22;7983;50.744;7.086;2022-09-21T05:09:04;10.20;99.90
15765;DHT22;7983;50.744;7.086;2022-09-21T05:11:53;10.20;99.90
15765;DHT22;7983;50.744;7.086;2022-09-21T05:14:21;10.20;99.90
15765;DHT22;7983;50.744;7.086;2022-09-21T05:16:46;10.30;99.90
15765;DHT22;7983;50.744;7.086;2022-09-21T05:19:14;10.20;99.90
15765;DHT22;7983;50.744;7.086;2022-09-21T05:21:45;10.20;99.90
15765;DHT22;7983;50.744;7.086;2022-09-21T05:24:11;10.20;99.90
15765;DHT22;7983;50.744;7.086;2022-09-21T05:26:37;10.30;99.90
15765;DHT22;7983;50.744;7.086;2022-09-21T05:29:03;10.20;99.90
15765;DHT22;7983;50.744;7.086;2022-09-21T05:31:37;10.20;99.90
15765;DHT22;7983;50.744;7.086;2022-09-21T05:39:15;10.20;99.90
15765;DHT22;7983;50.744;7.086;2022-09-21T05:41:43;10.20;99.90
15765;DHT22;7983;50.744;7.086;2022-09-21T05:44:12;10.20;99.90
15765;DHT22;7983;50.744;7.086;2022-09-21T05:46:40;10.20;99.90
15765;DHT22;7983;50.744;7.086;2022-09-21T05:57:03;10.10;99.90
15765;DHT22;7983;50.744;7.086;2022-09-21T06:05:09;10.10;99.90
15765;DHT22;7983;50.744;7.086;2022-09-21T06:07:36;10.10;99.90
15765;DHT22;7983;50.744;7.086;2022-09-21T06:10:01;10.10;99.90
15765;DHT22;7983;50.744;7.086;2022-09-21T06:12:27;10.10;99.90
15765;DHT22;7983;50.744;7.086;2022-09-21T06:14:53;10.10;99.90
15765;DHT22;7983;50.744;7.086;2022-09-21T06:17:20;10.10;99.90
15765;DHT22;7983;50.744;7.086;2022-09-21T06:19:45;10.20;99.90
15765;DHT22;7983;50.744;7.086;2022-09-21T06:22:11;10.10;99.90
15765;DHT22;7983;50.744;7.086;2022-09-21T06:24:39;10.20;99.90
15765;DHT22;7983;50.744;7.086;2022-09-21T06:27:04;10.20;99.90
15765;DHT22;7983;50.744;7.086;2022-09-21T06:29:32;10.30;99.90
15765;DHT22;7983;50.744;7.086;2022-09-21T06:31:58;10.30;99.90
15765;DHT22;7983;50.744;7.086;2022-09-21T06:34:26;10.30;99.90
15765;DHT22;7983;50.744;7.086;2022-09-21T06:36:52;10.30;99.90
15765;DHT22;7983;50.744;7.086;2022-09-21T06:39:19;10.30;99.90
15765;DHT22;7983;50.744;7.086;2022-09-21T06:41:45;10.40;99.90
15765;DHT22;7983;50.744;7.086;2022-09-21T06:44:13;10.40;99.90
15765;DHT22;7983;50.744;7.086;2022-09-21T06:46:38;10.40;99.90
15765;DHT22;7983;50.744;7.086;2022-09-21T06:49:06;10.40;99.90
15765;DHT22;7983;50.744;7.086;2022-09-21T06:51:32;10.50;99.90
15765;DHT22;7983;50.744;7.086;2022-09-21T06:53:58;10.50;99.90
15765;DHT22;7983;50.744;7.086;2022-09-21T06:56:24;10.60;99.90
15765;DHT22;7983;50.744;7.086;2022-09-21T06:58:53;10.60;99.90
15765;DHT22;7983;50.744;7.086;2022-09-21T07:01:19;10.70;99.90
15765;DHT22;7983;50.744;7.086;2022-09-21T07:03:48;10.70;99.90
15765;DHT22;7983;50.744;7.086;2022-09-21T07:06:19;10.80;99.90
15765;DHT22;7983;50.744;7.086;2022-09-21T07:08:46;10.90;99.90
15765;DHT22;7983;50.744;7.086;2022-09-21T07:11:12;10.90;99.90
15765;DHT22;7983;50.744;7.086;2022-09-21T07:13:39;11.00;99.90
15765;DHT22;7983;50.744;7.086;2022-09-21T07:16:05;11.00;99.90
15765;DHT22;7983;50.744;7.086;2022-09-21T07:18:32;11.00;99.90
15765;DHT22;7983;50.744;7.086;2022-09-21T07:21:05;11.10;99.90
15765;DHT22;7983;50.744;7.086;2022-09-21T07:23:36;11.10;99.90
15765;DHT22;7983;50.744;7.086;2022-09-21T07:26:12;11.20;99.90
15765;DHT22;7983;50.744;7.086;2022-09-21T07:28:38;11.30;99.90
15765;DHT22;7983;50.744;7.086;2022-09-21T07:31:10;11.30;99.90
15765;DHT22;7983;50.744;7.086;2022-09-21T07:33:42;11.40;99.90
15765;DHT22;7983;50.744;7.086;2022-09-21T07:36:13;11.40;99.90
15765;DHT22;7983;50.744;7.086;2022-09-21T07:38:44;11.40;99.90
15765;DHT22;7983;50.744;7.086;2022-09-21T07:41:12;11.50;99.90
15765;DHT22;7983;50.744;7.086;2022-09-21T07:43:41;11.50;99.90
15765;DHT22;7983;50.744;7.086;2022-09-21T07:46:08;11.50;99.90
15765;DHT22;7983;50.744;7.086;2022-09-21T07:48:34;11.60;99.90
15765;DHT22;7983;50.744;7.086;2022-09-21T07:51:03;11.60;99.90
15765;DHT22;7983;50.744;7.086;2022-09-21T07:53:31;11.70;99.90
15765;DHT22;7983;50.744;7.086;2022-09-21T07:56:02;11.70;99.90
15765;DHT22;7983;50.744;7.086;2022-09-21T07:58:30;11.80;99.90
15765;DHT22;7983;50.744;7.086;2022-09-21T08:01:15;11.90;99.90
15765;DHT22;7983;50.744;7.086;2022-09-21T08:03:41;11.90;99.90
15765;DHT22;7983;50.744;7.086;2022-09-21T08:06:08;11.90;99.90
15765;DHT22;7983;50.744;7.086;2022-09-21T08:08:34;12.00;99.90
15765;DHT22;7983;50.744;7.086;2022-09-21T08:11:04;12.00;99.90
15765;DHT22;7983;50.744;7.086;2022-09-21T08:13:30;12.10;99.90
15765;DHT22;7983;50.744;7.086;2022-09-21T08:16:00;12.20;99.90
15765;DHT22;7983;50.744;7.086;2022-09-21T08:18:28;12.10;99.90
15765;DHT22;7983;50.744;7.086;2022-09-21T08:20:58;12.20;99.90
15765;DHT22;7983;50.744;7.086;2022-09-21T08:23:25;12.20;99.90
15765;DHT22;7983;50.744;7.086;2022-09-21T08:26:00;12.20;99.90
15765;DHT22;7983;50.744;7.086;2022-09-21T08:28:27;12.30;99.90
15765;DHT22;7983;50.744;7.086;2022-09-21T08:30:53;12.20;99.90
15765;DHT22;7983;50.744;7.086;2022-09-21T08:33:19;12.20;99.90
15765;DHT22;7983;50.744;7.086;2022-09-21T08:35:54;12.30;99.90
15765;DHT22;7983;50.744;7.086;2022-09-21T08:38:23;12.30;99.90
15765;DHT22;7983;50.744;7.086;2022-09-21T08:40:50;12.40;99.90
15765;DHT22;7983;50.744;7.086;2022-09-21T08:43:40;12.40;99.90
15765;DHT22;7983;50.744;7.086;2022-09-21T08:46:11;12.40;99.90
15765;DHT22;7983;50.744;7.086;2022-09-21T08:48:48;12.50;99.90
15765;DHT22;7983;50.744;7.086;2022-09-21T08:51:22;12.50;99.90
15765;DHT22;7983;50.744;7.086;2022-09-21T08:53:52;12.60;99.90
15765;DHT22;7983;50.744;7.086;2022-09-21T08:56:24;12.70;99.90
15765;DHT22;7983;50.744;7.086;2022-09-21T08:58:50;12.70;99.90
15765;DHT22;7983;50.744;7.086;2022-09-21T09:12:41;13.10;99.90
15765;DHT22;7983;50.744;7.086;2022-09-21T09:15:33;13.20;99.90
15765;DHT22;7983;50.744;7.086;2022-09-21T09:20:42;13.40;99.90
15765;DHT22;7983;50.744;7.086;2022-09-21T09:25:52;13.70;99.90
15765;DHT22;7983;50.744;7.086;2022-09-21T09:31:30;13.90;99.90
15765;DHT22;7983;50.744;7.086;2022-09-21T09:34:22;14.10;99.90
15765;DHT22;7983;50.744;7.086;2022-09-21T09:36:51;14.30;99.90
15765;DHT22;7983;50.744;7.086;2022-09-21T09:39:18;14.70;99.90
15765;DHT22;7983;50.744;7.086;2022-09-21T09:47:19;16.80;99.90
15765;DHT22;7983;50.744;7.086;2022-09-21T09:52:42;18.40;99.90
15765;DHT22;7983;50.744;7.086;2022-09-21T09:55:21;18.80;99.90
15765;DHT22;7983;50.744;7.086;2022-09-21T09:57:48;19.40;99.90
15765;DHT22;7983;50.744;7.086;2022-09-21T10:00:17;19.90;99.90
15765;DHT22;7983;50.744;7.086;2022-09-21T10:02:55;20.40;99.90
15765;DHT22;7983;50.744;7.086;2022-09-21T10:05:22;20.80;99.90
15765;DHT22;7983;50.744;7.086;2022-09-21T10:07:51;21.10;99.90
15765;DHT22;7983;50.744;7.086;2022-09-21T10:10:28;21.40;99.90
15765;DHT22;7983;50.744;7.086;2022-09-21T10:15:29;22.00;99.90
15765;DHT22;7983;50.744;7.086;2022-09-21T10:18:10;22.10;99.90
15765;DHT22;7983;50.744;7.086;2022-09-21T10:21:36;22.20;99.90
15765;DHT22;7983;50.744;7.086;2022-09-21T10:23:41;22.40;99.90
15765;DHT22;7983;50.744;7.086;2022-09-21T10:26:12;22.70;99.90
15765;DHT22;7983;50.744;7.086;2022-09-21T10:28:58;22.90;99.90
15765;DHT22;7983;50.744;7.086;2022-09-21T10:31:26;23.10;99.90
15765;DHT22;7983;50.744;7.086;2022-09-21T10:36:27;23.20;99.90
15765;DHT22;7983;50.744;7.086;2022-09-21T10:38:53;23.30;99.90
15765;DHT22;7983;50.744;7.086;2022-09-21T10:41:19;23.40;99.90
15765;DHT22;7983;50.744;7.086;2022-09-21T10:43:45;23.50;99.90
15765;DHT22;7983;50.744;7.086;2022-09-21T10:46:13;23.60;99.90
15765;DHT22;7983;50.744;7.086;2022-09-21T10:48:39;23.70;99.90
15765;DHT22;7983;50.744;7.086;2022-09-21T10:51:25;23.80;99.90
15765;DHT22;7983;50.744;7.086;2022-09-21T10:53:53;23.80;99.90
15765;DHT22;7983;50.744;7.086;2022-09-21T10:56:22;23.70;99.90
15765;DHT22;7983;50.744;7.086;2022-09-21T11:01:49;23.70;99.90
15765;DHT22;7983;50.744;7.086;2022-09-21T11:15:16;23.60;99.90
15765;DHT22;7983;50.744;7.086;2022-09-21T11:17:54;23.60;99.90
15765;DHT22;7983;50.744;7.086;2022-09-21T11:20:48;23.50;99.90
15765;DHT22;7983;50.744;7.086;2022-09-21T11:26:26;23.40;99.90
15765;DHT22;7983;50.744;7.086;2022-09-21T11:45:16;23.20;99.90
15765;DHT22;7983;50.744;7.086;2022-09-21T11:53:36;23.00;99.90
15765;DHT22;7983;50.744;7.086;2022-09-21T12:04:37;23.50;99.90
15765;DHT22;7983;50.744;7.086;2022-09-21T12:07:58;23.60;99.90
15765;DHT22;7983;50.744;7.086;2022-09-21T12:13:01;23.60;99.90
15765;DHT22;7983;50.744;7.086;2022-09-21T12:15:44;23.60;99.90
15765;DHT22;7983;50.744;7.086;2022-09-21T12:18:22;23.70;99.90
15765;DHT22;7983;50.744;7.086;2022-09-21T12:23:51;23.90;99.90
15765;DHT22;7983;50.744;7.086;2022-09-21T12:26:22;23.90;99.90
15765;DHT22;7983;50.744;7.086;2022-09-21T12:28:56;23.90;99.90
15765;DHT22;7983;50.744;7.086;2022-09-21T12:31:46;23.80;99.90
15765;DHT22;7983;50.744;7.086;2022-09-21T12:34:20;23.80;99.90
15765;DHT22;7983;50.744;7.086;2022-09-21T12:36:59;23.90;99.90
15765;DHT22;7983;50.744;7.086;2022-09-21T12:39:37;23.90;99.90
15765;DHT22;7983;50.744;7.086;2022-09-21T12:42:10;24.00;99.90
15765;DHT22;7983;50.744;7.086;2022-09-21T12:44:48;24.00;99.90
15765;DHT22;7983;50.744;7.086;2022-09-21T12:47:43;24.10;99.90
15765;DHT22;7983;50.744;7.086;2022-09-21T12:52:47;23.80;99.90
15765;DHT22;7983;50.744;7.086;2022-09-21T12:58:18;23.70;99.90
15765;DHT22;7983;50.744;7.086;2022-09-21T13:00:59;23.70;99.90
15765;DHT22;7983;50.744;7.086;2022-09-21T13:03:38;23.70;99.90
15765;DHT22;7983;50.744;7.086;2022-09-21T13:06:38;23.70;99.90
15765;DHT22;7983;50.744;7.086;2022-09-21T13:09:11;23.80;99.90
15765;DHT22;7983;50.744;7.086;2022-09-21T13:11:58;23.70;99.90
15765;DHT22;7983;50.744;7.086;2022-09-21T13:14:28;23.60;99.90
15765;DHT22;7983;50.744;7.086;2022-09-21T13:17:02;23.50;99.90
15765;DHT22;7983;50.744;7.086;2022-09-21T13:19:33;23.50;99.90
15765;DHT22;7983;50.744;7.086;2022-09-21T13:28:04;23.70;99.90
15765;DHT22;7983;50.744;7.086;2022-09-21T13:57:34;23.90;99.90
15765;DHT22;7983;50.744;7.086;2022-09-21T14:00:06;23.70;99.90
15765;DHT22;7983;50.744;7.086;2022-09-21T14:02:37;23.50;99.90
15765;DHT22;7983;50.744;7.086;2022-09-21T14:08:06;23.00;99.90
15765;DHT22;7983;50.744;7.086;2022-09-21T14:11:07;22.80;99.90
15765;DHT22;7983;50.744;7.086;2022-09-21T14:13:40;22.80;99.90
15765;DHT22;7983;50.744;7.086;2022-09-21T14:24:41;23.00;99.90
15765;DHT22;7983;50.744;7.086;2022-09-21T14:29:57;23.30;99.90
15765;DHT22;7983;50.744;7.086;2022-09-21T14:32:41;23.30;99.90
15765;DHT22;7983;50.744;7.086;2022-09-21T14:35:21;23.50;99.90
15765;DHT22;7983;50.744;7.086;2022-09-21T14:37:59;23.60;99.90
15765;DHT22;7983;50.744;7.086;2022-09-21T14:42:57;23.60;99.90
15765;DHT22;7983;50.744;7.086;2022-09-21T14:59:48;23.60;99.90
15765;DHT22;7983;50.744;7.086;2022-09-21T15:02:30;23.60;99.90
15765;DHT22;7983;50.744;7.086;2022-09-21T15:07:50;23.80;99.90
15765;DHT22;7983;50.744;7.086;2022-09-21T15:21:54;23.80;99.90
15765;DHT22;7983;50.744;7.086;2022-09-21T15:24:27;23.80;99.90
15765;DHT22;7983;50.744;7.086;2022-09-21T15:27:07;23.80;99.90
15765;DHT22;7983;50.744;7.086;2022-09-21T15:29:38;23.70;99.90
15765;DHT22;7983;50.744;7.086;2022-09-21T15:32:06;23.70;99.90
15765;DHT22;7983;50.744;7.086;2022-09-21T15:34:34;23.70;99.90
15765;DHT22;7983;50.744;7.086;2022-09-21T15:37:14;23.70;99.90
15765;DHT22;7983;50.744;7.086;2022-09-21T15:40:00;23.70;99.90
15765;DHT22;7983;50.744;7.086;2022-09-21T15:42:26;23.70;99.90
15765;DHT22;7983;50.744;7.086;2022-09-21T15:45:09;23.60;99.90
15765;DHT22;7983;50.744;7.086;2022-09-21T15:47:36;23.60;99.90
15765;DHT22;7983;50.744;7.086;2022-09-21T15:50:11;23.60;99.90
15765;DHT22;7983;50.744;7.086;2022-09-21T15:52:52;23.50;99.90
15765;DHT22;7983;50.744;7.086;2022-09-21T15:55:22;23.50;99.90
15765;DHT22;7983;50.744;7.086;2022-09-21T15:57:50;23.40;99.90
15765;DHT22;7983;50.744;7.086;2022-09-21T16:00:20;23.40;99.90
15765;DHT22;7983;50.744;7.086;2022-09-21T16:05:41;23.30;99.50
15765;DHT22;7983;50.744;7.086;2022-09-21T16:08:24;23.20;99.90
15765;DHT22;7983;50.744;7.086;2022-09-21T16:10:50;23.20;99.90
15765;DHT22;7983;50.744;7.086;2022-09-21T16:13:23;23.10;99.90
15765;DHT22;7983;50.744;7.086;2022-09-21T16:16:12;23.10;99.90
15765;DHT22;7983;50.744;7.086;2022-09-21T16:18:47;23.10;99.90
15765;DHT22;7983;50.744;7.086;2022-09-21T16:23:45;23.00;99.90
15765;DHT22;7983;50.744;7.086;2022-09-21T16:26:22;22.90;99.90
15765;DHT22;7983;50.744;7.086;2022-09-21T16:28:48;22.70;99.90
15765;DHT22;7983;50.744;7.086;2022-09-21T16:31:31;22.60;99.90
15765;DHT22;7983;50.744;7.086;2022-09-21T16:33:58;22.40;99.90
15765;DHT22;7983;50.744;7.086;2022-09-21T16:38:54;22.10;99.90
15765;DHT22;7983;50.744;7.086;2022-09-21T16:41:36;21.90;99.90
15765;DHT22;7983;50.744;7.086;2022-09-21T16:44:04;21.70;99.80
15765;DHT22;7983;50.744;7.086;2022-09-21T16:46:32;21.60;99.90
15765;DHT22;7983;50.744;7.086;2022-09-21T16:49:02;21.40;99.90
15765;DHT22;7983;50.744;7.086;2022-09-21T16:51:31;21.20;99.90
15765;DHT22;7983;50.744;7.086;2022-09-21T16:53:56;21.00;99.90
15765;DHT22;7983;50.744;7.086;2022-09-21T16:56:25;20.80;99.90
15765;DHT22;7983;50.744;7.086;2022-09-21T16:58:51;20.70;99.90
15765;DHT22;7983;50.744;7.086;2022-09-21T17:01:18;20.50;99.90
15765;DHT22;7983;50.744;7.086;2022-09-21T17:03:46;20.40;99.90
15765;DHT22;7983;50.744;7.086;2022-09-21T17:06:21;20.30;99.90
15765;DHT22;7983;50.744;7.086;2022-09-21T17:08:47;20.10;99.90
15765;DHT22;7983;50.744;7.086;2022-09-21T17:11:18;20.00;99.90
15765;DHT22;7983;50.744;7.086;2022-09-21T17:13:50;19.90;99.90
15765;DHT22;7983;50.744;7.086;2022-09-21T17:16:18;19.80;99.90
15765;DHT22;7983;50.744;7.086;2022-09-21T17:18:45;19.60;99.90
15765;DHT22;7983;50.744;7.086;2022-09-21T17:21:11;19.50;99.90
15765;DHT22;7983;50.744;7.086;2022-09-21T17:23:37;19.30;99.90
15765;DHT22;7983;50.744;7.086;2022-09-21T17:26:10;19.20;99.90
15765;DHT22;7983;50.744;7.086;2022-09-21T17:28:38;19.10;99.90
15765;DHT22;7983;50.744;7.086;2022-09-21T17:31:04;18.90;99.90
15765;DHT22;7983;50.744;7.086;2022-09-21T17:33:34;18.80;99.90
15765;DHT22;7983;50.744;7.086;2022-09-21T17:36:02;18.70;99.90
15765;DHT22;7983;50.744;7.086;2022-09-21T17:38:31;18.60;99.90
15765;DHT22;7983;50.744;7.086;2022-09-21T17:40:57;18.50;99.90
15765;DHT22;7983;50.744;7.086;2022-09-21T17:43:38;18.30;99.90
15765;DHT22;7983;50.744;7.086;2022-09-21T17:48:38;18.10;99.90
15765;DHT22;7983;50.744;7.086;2022-09-21T17:51:07;18.00;99.90
15765;DHT22;7983;50.744;7.086;2022-09-21T17:53:33;17.90;99.90
15765;DHT22;7983;50.744;7.086;2022-09-21T18:03:48;17.50;99.90
15765;DHT22;7983;50.744;7.086;2022-09-21T18:06:17;17.40;99.90
15765;DHT22;7983;50.744;7.086;2022-09-21T18:08:45;17.30;99.90
15765;DHT22;7983;50.744;7.086;2022-09-21T18:16:18;17.00;99.90
15765;DHT22;7983;50.744;7.086;2022-09-21T18:18:52;16.90;99.90
15765;DHT22;7983;50.744;7.086;2022-09-21T18:21:22;16.80;99.90
15765;DHT22;7983;50.744;7.086;2022-09-21T18:26:23;16.60;99.90
15765;DHT22;7983;50.744;7.086;2022-09-21T18:28:49;16.50;99.90
15765;DHT22;7983;50.744;7.086;2022-09-21T18:35:20;16.30;99.90
15765;DHT22;7983;50.744;7.086;2022-09-21T18:38:02;16.20;99.90
15765;DHT22;7983;50.744;7.086;2022-09-21T18:46:03;16.00;99.90
15765;DHT22;7983;50.744;7.086;2022-09-21T18:51:36;15.90;99.90
15765;DHT22;7983;50.744;7.086;2022-09-21T18:54:03;15.80;99.90
15765;DHT22;7983;50.744;7.086;2022-09-21T18:56:35;15.70;99.90
15765;DHT22;7983;50.744;7.086;2022-09-21T18:59:03;15.60;99.90
15765;DHT22;7983;50.744;7.086;2022-09-21T19:01:48;15.60;99.90
15765;DHT22;7983;50.744;7.086;2022-09-21T19:04:17;15.50;99.90
15765;DHT22;7983;50.744;7.086;2022-09-21T19:06:57;15.50;99.90
15765;DHT22;7983;50.744;7.086;2022-09-21T19:09:46;15.40;99.90
15765;DHT22;7983;50.744;7.086;2022-09-21T19:26:09;15.10;99.90
15765;DHT22;7983;50.744;7.086;2022-09-21T19:31:23;14.90;99.90
15765;DHT22;7983;50.744;7.086;2022-09-21T19:33:51;14.90;99.90
15765;DHT22;7983;50.744;7.086;2022-09-21T19:36:19;14.80;99.90
15765;DHT22;7983;50.744;7.086;2022-09-21T19:38:45;14.80;99.90
15765;DHT22;7983;50.744;7.086;2022-09-21T19:47:19;14.60;99.90
15765;DHT22;7983;50.744;7.086;2022-09-21T19:49:53;14.50;99.90
15765;DHT22;7983;50.744;7.086;2022-09-21T19:52:28;14.50;99.90
15765;DHT22;7983;50.744;7.086;2022-09-21T19:54:55;14.40;99.90
15765;DHT22;7983;50.744;7.086;2022-09-21T19:57:39;14.30;99.90
15765;DHT22;7983;50.744;7.086;2022-09-21T20:00:26;14.30;99.90
15765;DHT22;7983;50.744;7.086;2022-09-21T20:03:04;14.20;99.90
15765;DHT22;7983;50.744;7.086;2022-09-21T20:10:55;14.10;99.90
15765;DHT22;7983;50.744;7.086;2022-09-21T20:21:21;13.90;99.90
15765;DHT22;7983;50.744;7.086;2022-09-21T20:23:55;13.90;99.90
15765;DHT22;7983;50.744;7.086;2022-09-21T20:26:25;13.90;99.90
15765;DHT22;7983;50.744;7.086;2022-09-21T20:28:53;13.80;99.90
15765;DHT22;7983;50.744;7.086;2022-09-21T20:31:23;13.80;99.90
15765;DHT22;7983;50.744;7.086;2022-09-21T20:33:52;13.70;99.90
15765;DHT22;7983;50.744;7.086;2022-09-21T20:36:18;13.60;99.90
15765;DHT22;7983;50.744;7.086;2022-09-21T20:38:43;13.60;99.90
15765;DHT22;7983;50.744;7.086;2022-09-21T20:41:11;13.50;99.90
15765;DHT22;7983;50.744;7.086;2022-09-21T20:43:37;13.40;99.90
15765;DHT22;7983;50.744;7.086;2022-09-21T20:46:03;13.40;99.90
15765;DHT22;7983;50.744;7.086;2022-09-21T20:48:29;13.40;99.90
15765;DHT22;7983;50.744;7.086;2022-09-21T20:50:54;13.30;99.90
15765;DHT22;7983;50.744;7.086;2022-09-21T20:53:23;13.30;99.90
15765;DHT22;7983;50.744;7.086;2022-09-21T20:55:59;13.20;99.90
15765;DHT22;7983;50.744;7.086;2022-09-21T20:58:32;13.30;99.90
15765;DHT22;7983;50.744;7.086;2022-09-21T21:01:05;13.20;99.90
15765;DHT22;7983;50.744;7.086;2022-09-21T21:03:34;13.20;99.90
15765;DHT22;7983;50.744;7.086;2022-09-21T21:06:11;13.20;99.90
15765;DHT22;7983;50.744;7.086;2022-09-21T21:08:39;13.10;99.90